sensor_id;sensor_type;location;lat;lon;timestamp;pressure;altitude;pressure_sealevel;temperature;humidity
72975;BME280;61166;54.228;37.632;2022-12-07T00:01:28;100686.25;;;-10.65;nan
72975;BME280;61166;54.228;37.632;2022-12-07T00:03:56;100691.19;;;-10.59;nan
72975;BME280;61166;54.228;37.632;2022-12-07T00:06:23;100696.13;;;-10.54;nan
72975;BME280;61166;54.228;37.632;2022-12-07T00:08:50;100684.75;;;-10.72;nan
72975;BME280;61166;54.228;37.632;2022-12-07T00:11:20;100687.00;;;-10.61;nan
72975;BME280;61166;54.228;37.632;2022-12-07T00:13:55;100697.72;;;-10.83;nan
72975;BME280;61166;54.228;37.632;2022-12-07T00:16:24;100702.13;;;-10.89;nan
72975;BME280;61166;54.228;37.632;2022-12-07T00:18:52;100708.16;;;-10.93;nan
72975;BME280;61166;54.228;37.632;2022-12-07T00:21:24;100691.81;;;-10.83;nan
72975;BME280;61166;54.228;37.632;2022-12-07T00:23:52;100691.09;;;-10.88;nan
72975;BME280;61166;54.228;37.632;2022-12-07T00:28:52;100691.59;;;-11.07;nan
72975;BME280;61166;54.228;37.632;2022-12-07T00:31:22;100688.16;;;-11.04;nan
72975;BME280;61166;54.228;37.632;2022-12-07T00:33:49;100687.22;;;-11.02;nan
72975;BME280;61166;54.228;37.632;2022-12-07T00:36:21;100693.22;;;-11.04;nan
72975;BME280;61166;54.228;37.632;2022-12-07T00:38:53;100693.31;;;-11.07;nan
72975;BME280;61166;54.228;37.632;2022-12-07T00:41:22;100689.06;;;-11.07;nan
72975;BME280;61166;54.228;37.632;2022-12-07T00:43:50;100688.06;;;-11.01;nan
72975;BME280;61166;54.228;37.632;2022-12-07T00:46:17;100682.38;;;-11.11;nan
72975;BME280;61166;54.228;37.632;2022-12-07T00:48:45;100691.78;;;-11.14;nan
72975;BME280;61166;54.228;37.632;2022-12-07T00:51:13;100690.72;;;-11.06;nan
72975;BME280;61166;54.228;37.632;2022-12-07T00:53:40;100689.25;;;-11.14;nan
72975;BME280;61166;54.228;37.632;2022-12-07T00:56:15;100684.03;;;-11.10;nan
72975;BME280;61166;54.228;37.632;2022-12-07T00:58:43;100685.06;;;-11.17;nan
72975;BME280;61166;54.228;37.632;2022-12-07T01:01:10;100682.59;;;-11.20;nan
72975;BME280;61166;54.228;37.632;2022-12-07T01:03:37;100685.16;;;-11.20;nan
72975;BME280;61166;54.228;37.632;2022-12-07T01:06:05;100683.50;;;-11.22;nan
72975;BME280;61166;54.228;37.632;2022-12-07T01:08:32;100682.59;;;-11.20;nan
72975;BME280;61166;54.228;37.632;2022-12-07T01:11:01;100682.78;;;-11.27;nan
72975;BME280;61166;54.228;37.632;2022-12-07T01:13:28;100682.81;;;-11.29;nan
72975;BME280;61166;54.228;37.632;2022-12-07T01:15:59;100683.78;;;-11.33;nan
72975;BME280;61166;54.228;37.632;2022-12-07T01:18:28;100697.19;;;-11.28;nan
72975;BME280;61166;54.228;37.632;2022-12-07T01:21:14;100686.38;;;-11.36;nan
72975;BME280;61166;54.228;37.632;2022-12-07T01:23:41;100684.75;;;-11.39;nan
72975;BME280;61166;54.228;37.632;2022-12-07T01:26:14;100681.38;;;-11.39;nan
72975;BME280;61166;54.228;37.632;2022-12-07T01:28:40;100689.88;;;-11.40;nan
72975;BME280;61166;54.228;37.632;2022-12-07T01:31:10;100682.34;;;-11.45;nan
72975;BME280;61166;54.228;37.632;2022-12-07T01:33:38;100677.06;;;-11.36;nan
72975;BME280;61166;54.228;37.632;2022-12-07T01:38:33;100677.31;;;-11.46;nan
72975;BME280;61166;54.228;37.632;2022-12-07T01:41:01;100673.66;;;-11.35;nan
72975;BME280;61166;54.228;37.632;2022-12-07T01:43:30;100677.00;;;-11.32;nan
72975;BME280;61166;54.228;37.632;2022-12-07T01:45:57;100671.28;;;-11.42;nan
72975;BME280;61166;54.228;37.632;2022-12-07T01:48:30;100672.13;;;-11.42;nan
72975;BME280;61166;54.228;37.632;2022-12-07T01:51:03;100674.72;;;-11.43;nan
72975;BME280;61166;54.228;37.632;2022-12-07T01:53:32;100669.56;;;-11.40;nan
72975;BME280;61166;54.228;37.632;2022-12-07T01:56:01;100669.78;;;-11.49;nan
72975;BME280;61166;54.228;37.632;2022-12-07T01:58:28;100668.78;;;-11.44;nan
72975;BME280;61166;54.228;37.632;2022-12-07T02:00:54;100673.69;;;-11.36;nan
72975;BME280;61166;54.228;37.632;2022-12-07T02:03:29;100677.41;;;-11.51;nan
72975;BME280;61166;54.228;37.632;2022-12-07T02:05:57;100669.00;;;-11.53;nan
72975;BME280;61166;54.228;37.632;2022-12-07T02:08:24;100677.66;;;-11.60;nan
72975;BME280;61166;54.228;37.632;2022-12-07T02:10:51;100665.66;;;-11.55;nan
72975;BME280;61166;54.228;37.632;2022-12-07T02:13:21;100661.53;;;-11.57;nan
72975;BME280;61166;54.228;37.632;2022-12-07T02:27:16;100668.50;;;-11.65;nan
72975;BME280;61166;54.228;37.632;2022-12-07T02:35:33;100658.16;;;-11.58;nan
72975;BME280;61166;54.228;37.632;2022-12-07T02:41:00;100660.66;;;-11.56;nan
72975;BME280;61166;54.228;37.632;2022-12-07T02:43:38;100655.84;;;-11.67;nan
72975;BME280;61166;54.228;37.632;2022-12-07T02:46:09;100660.16;;;-11.71;nan
72975;BME280;61166;54.228;37.632;2022-12-07T02:48:38;100655.00;;;-11.68;nan
72975;BME280;61166;54.228;37.632;2022-12-07T02:51:07;100648.13;;;-11.62;nan
72975;BME280;61166;54.228;37.632;2022-12-07T02:53:41;100645.66;;;-11.65;nan
72975;BME280;61166;54.228;37.632;2022-12-07T03:07:00;100633.56;;;-11.90;nan
72975;BME280;61166;54.228;37.632;2022-12-07T03:10:05;100631.09;;;-11.93;nan
72975;BME280;61166;54.228;37.632;2022-12-07T03:15:21;100620.28;;;-12.01;nan
72975;BME280;61166;54.228;37.632;2022-12-07T03:17:52;100616.72;;;-11.94;nan
72975;BME280;61166;54.228;37.632;2022-12-07T03:20:23;100609.66;;;-11.80;nan
72975;BME280;61166;54.228;37.632;2022-12-07T03:22:53;100613.03;;;-11.81;nan
72975;BME280;61166;54.228;37.632;2022-12-07T03:25:21;100613.91;;;-11.82;nan
72975;BME280;61166;54.228;37.632;2022-12-07T03:28:02;100607.13;;;-11.81;nan
72975;BME280;61166;54.228;37.632;2022-12-07T03:30:44;100605.41;;;-11.79;nan
72975;BME280;61166;54.228;37.632;2022-12-07T03:33:17;100607.22;;;-11.84;nan
72975;BME280;61166;54.228;37.632;2022-12-07T03:35:56;100598.66;;;-11.80;nan
72975;BME280;61166;54.228;37.632;2022-12-07T03:38:32;100601.38;;;-11.88;nan
72975;BME280;61166;54.228;37.632;2022-12-07T03:41:10;100594.34;;;-11.77;nan
72975;BME280;61166;54.228;37.632;2022-12-07T03:43:40;100589.41;;;-11.83;nan
72975;BME280;61166;54.228;37.632;2022-12-07T03:49:07;100592.97;;;-11.90;nan
72975;BME280;61166;54.228;37.632;2022-12-07T03:52:10;100580.91;;;-11.80;nan
72975;BME280;61166;54.228;37.632;2022-12-07T03:55:09;100582.75;;;-11.87;nan
72975;BME280;61166;54.228;37.632;2022-12-07T03:57:33;100581.41;;;-12.02;nan
72975;BME280;61166;54.228;37.632;2022-12-07T04:00:04;100579.69;;;-12.01;nan
72975;BME280;61166;54.228;37.632;2022-12-07T04:02:32;100583.75;;;-11.94;nan
72975;BME280;61166;54.228;37.632;2022-12-07T04:05:00;100584.34;;;-11.83;nan
72975;BME280;61166;54.228;37.632;2022-12-07T04:07:27;100577.59;;;-11.84;nan
72975;BME280;61166;54.228;37.632;2022-12-07T04:09:54;100592.25;;;-11.95;nan
72975;BME280;61166;54.228;37.632;2022-12-07T04:12:22;100578.53;;;-11.88;nan
72975;BME280;61166;54.228;37.632;2022-12-07T04:14:48;100583.44;;;-11.80;nan
72975;BME280;61166;54.228;37.632;2022-12-07T04:17:15;100585.31;;;-11.88;nan
72975;BME280;61166;54.228;37.632;2022-12-07T04:19:42;100574.19;;;-11.83;nan
72975;BME280;61166;54.228;37.632;2022-12-07T04:22:08;100590.06;;;-11.76;nan
72975;BME280;61166;54.228;37.632;2022-12-07T04:24:35;100579.13;;;-11.77;nan
72975;BME280;61166;54.228;37.632;2022-12-07T04:27:02;100583.13;;;-11.68;nan
72975;BME280;61166;54.228;37.632;2022-12-07T04:29:29;100580.94;;;-11.82;nan
72975;BME280;61166;54.228;37.632;2022-12-07T04:31:56;100586.78;;;-11.78;nan
72975;BME280;61166;54.228;37.632;2022-12-07T04:34:22;100584.34;;;-11.83;nan
72975;BME280;61166;54.228;37.632;2022-12-07T04:36:49;100588.59;;;-11.83;nan
72975;BME280;61166;54.228;37.632;2022-12-07T04:41:45;100585.63;;;-12.02;nan
72975;BME280;61166;54.228;37.632;2022-12-07T04:44:12;100586.66;;;-12.09;nan
72975;BME280;61166;54.228;37.632;2022-12-07T04:46:40;100597.75;;;-12.13;nan
72975;BME280;61166;54.228;37.632;2022-12-07T04:49:07;100594.78;;;-11.95;nan
72975;BME280;61166;54.228;37.632;2022-12-07T04:51:34;100605.13;;;-12.04;nan
72975;BME280;61166;54.228;37.632;2022-12-07T04:54:00;100598.53;;;-12.11;nan
72975;BME280;61166;54.228;37.632;2022-12-07T04:56:27;100605.28;;;-12.12;nan
72975;BME280;61166;54.228;37.632;2022-12-07T04:58:54;100591.13;;;-12.19;nan
72975;BME280;61166;54.228;37.632;2022-12-07T05:01:22;100604.69;;;-12.21;nan
72975;BME280;61166;54.228;37.632;2022-12-07T05:03:49;100601.94;;;-12.12;nan
72975;BME280;61166;54.228;37.632;2022-12-07T05:06:16;100601.31;;;-12.22;nan
72975;BME280;61166;54.228;37.632;2022-12-07T05:08:43;100608.69;;;-12.13;nan
72975;BME280;61166;54.228;37.632;2022-12-07T05:11:10;100610.25;;;-12.07;nan
72975;BME280;61166;54.228;37.632;2022-12-07T05:13:37;100613.53;;;-12.02;nan
72975;BME280;61166;54.228;37.632;2022-12-07T05:16:04;100613.09;;;-12.19;nan
72975;BME280;61166;54.228;37.632;2022-12-07T05:18:30;100597.00;;;-12.17;nan
72975;BME280;61166;54.228;37.632;2022-12-07T05:20:57;100598.03;;;-12.25;nan
72975;BME280;61166;54.228;37.632;2022-12-07T05:23:24;100602.59;;;-12.04;nan
72975;BME280;61166;54.228;37.632;2022-12-07T05:25:50;100598.44;;;-12.08;nan
72975;BME280;61166;54.228;37.632;2022-12-07T05:28:17;100607.28;;;-12.24;nan
72975;BME280;61166;54.228;37.632;2022-12-07T05:30:43;100608.63;;;-12.10;nan
72975;BME280;61166;54.228;37.632;2022-12-07T05:33:10;100597.56;;;-12.06;nan
72975;BME280;61166;54.228;37.632;2022-12-07T05:35:36;100587.66;;;-12.15;nan
72975;BME280;61166;54.228;37.632;2022-12-07T05:38:03;100594.97;;;-12.04;nan
72975;BME280;61166;54.228;37.632;2022-12-07T05:40:31;100604.84;;;-11.92;nan
72975;BME280;61166;54.228;37.632;2022-12-07T05:42:58;100602.28;;;-11.56;nan
72975;BME280;61166;54.228;37.632;2022-12-07T05:45:30;100609.00;;;-11.21;nan
72975;BME280;61166;54.228;37.632;2022-12-07T05:47:57;100597.28;;;-10.96;nan
72975;BME280;61166;54.228;37.632;2022-12-07T05:50:23;100593.41;;;-10.78;nan
72975;BME280;61166;54.228;37.632;2022-12-07T05:52:50;100595.63;;;-10.66;nan
72975;BME280;61166;54.228;37.632;2022-12-07T05:55:16;100589.09;;;-10.19;nan
72975;BME280;61166;54.228;37.632;2022-12-07T05:57:43;100587.63;;;-9.98;nan
72975;BME280;61166;54.228;37.632;2022-12-07T06:00:10;100577.56;;;-9.76;nan
72975;BME280;61166;54.228;37.632;2022-12-07T06:02:37;100589.28;;;-9.71;nan
72975;BME280;61166;54.228;37.632;2022-12-07T06:05:04;100585.31;;;-9.28;nan
72975;BME280;61166;54.228;37.632;2022-12-07T06:07:31;100574.31;;;-9.05;nan
72975;BME280;61166;54.228;37.632;2022-12-07T06:09:58;100581.91;;;-8.57;nan
72975;BME280;61166;54.228;37.632;2022-12-07T06:12:25;100578.31;;;-8.51;nan
72975;BME280;61166;54.228;37.632;2022-12-07T06:14:51;100572.72;;;-7.95;nan
72975;BME280;61166;54.228;37.632;2022-12-07T06:17:18;100576.78;;;-8.12;nan
72975;BME280;61166;54.228;37.632;2022-12-07T06:19:44;100587.63;;;-8.28;nan
72975;BME280;61166;54.228;37.632;2022-12-07T06:22:11;100569.00;;;-7.26;nan
72975;BME280;61166;54.228;37.632;2022-12-07T06:24:38;100574.63;;;-7.18;nan
72975;BME280;61166;54.228;37.632;2022-12-07T06:27:06;100567.13;;;-7.02;nan
72975;BME280;61166;54.228;37.632;2022-12-07T06:29:32;100564.31;;;-6.58;nan
72975;BME280;61166;54.228;37.632;2022-12-07T06:31:59;100569.09;;;-6.51;nan
72975;BME280;61166;54.228;37.632;2022-12-07T06:34:27;100586.38;;;-6.93;nan
72975;BME280;61166;54.228;37.632;2022-12-07T06:36:53;100569.56;;;-6.80;nan
72975;BME280;61166;54.228;37.632;2022-12-07T06:39:22;100550.91;;;-6.09;nan
72975;BME280;61166;54.228;37.632;2022-12-07T06:41:49;100566.94;;;-6.60;nan
72975;BME280;61166;54.228;37.632;2022-12-07T06:44:16;100554.31;;;-6.08;nan
72975;BME280;61166;54.228;37.632;2022-12-07T06:46:43;100569.38;;;-6.38;nan
72975;BME280;61166;54.228;37.632;2022-12-07T06:49:10;100555.16;;;-6.26;nan
72975;BME280;61166;54.228;37.632;2022-12-07T06:51:36;100571.16;;;-6.59;nan
72975;BME280;61166;54.228;37.632;2022-12-07T06:54:03;100564.69;;;-6.11;nan
72975;BME280;61166;54.228;37.632;2022-12-07T06:56:30;100562.47;;;-5.83;nan
72975;BME280;61166;54.228;37.632;2022-12-07T06:58:56;100569.69;;;-5.56;nan
72975;BME280;61166;54.228;37.632;2022-12-07T07:01:25;100569.16;;;-5.97;nan
72975;BME280;61166;54.228;37.632;2022-12-07T07:03:52;100563.50;;;-6.04;nan
72975;BME280;61166;54.228;37.632;2022-12-07T07:06:19;100575.88;;;-5.43;nan
72975;BME280;61166;54.228;37.632;2022-12-07T07:08:45;100562.06;;;-5.23;nan
72975;BME280;61166;54.228;37.632;2022-12-07T07:11:12;100565.09;;;-5.00;nan
72975;BME280;61166;54.228;37.632;2022-12-07T07:13:40;100577.97;;;-5.34;nan
72975;BME280;61166;54.228;37.632;2022-12-07T07:16:07;100567.28;;;-5.09;nan
72975;BME280;61166;54.228;37.632;2022-12-07T07:18:34;100569.75;;;-5.41;nan
72975;BME280;61166;54.228;37.632;2022-12-07T07:21:01;100564.31;;;-5.69;nan
72975;BME280;61166;54.228;37.632;2022-12-07T07:23:28;100556.53;;;-4.83;nan
72975;BME280;61166;54.228;37.632;2022-12-07T07:25:55;100567.53;;;-5.14;nan
72975;BME280;61166;54.228;37.632;2022-12-07T07:28:21;100562.66;;;-4.85;nan
72975;BME280;61166;54.228;37.632;2022-12-07T07:30:48;100558.38;;;-4.38;nan
72975;BME280;61166;54.228;37.632;2022-12-07T07:33:14;100554.22;;;-3.63;nan
72975;BME280;61166;54.228;37.632;2022-12-07T07:35:41;100548.19;;;-5.04;nan
72975;BME280;61166;54.228;37.632;2022-12-07T07:38:08;100563.81;;;-5.41;nan
72975;BME280;61166;54.228;37.632;2022-12-07T07:40:36;100540.34;;;-4.68;nan
72975;BME280;61166;54.228;37.632;2022-12-07T07:43:02;100545.47;;;-4.36;nan
72975;BME280;61166;54.228;37.632;2022-12-07T07:45:29;100569.94;;;-4.62;nan
72975;BME280;61166;54.228;37.632;2022-12-07T07:47:56;100547.59;;;-5.42;nan
72975;BME280;61166;54.228;37.632;2022-12-07T07:50:22;100548.72;;;-4.97;nan
72975;BME280;61166;54.228;37.632;2022-12-07T07:52:49;100556.34;;;-4.95;nan
72975;BME280;61166;54.228;37.632;2022-12-07T07:55:16;100538.34;;;-5.79;nan
72975;BME280;61166;54.228;37.632;2022-12-07T07:57:43;100571.50;;;-5.58;nan
72975;BME280;61166;54.228;37.632;2022-12-07T08:00:15;100552.56;;;-5.58;nan
72975;BME280;61166;54.228;37.632;2022-12-07T08:02:42;100550.38;;;-6.15;nan
72975;BME280;61166;54.228;37.632;2022-12-07T08:05:13;100559.28;;;-5.88;nan
72975;BME280;61166;54.228;37.632;2022-12-07T08:07:40;100540.13;;;-5.46;nan
72975;BME280;61166;54.228;37.632;2022-12-07T08:10:09;100561.69;;;-5.50;nan
72975;BME280;61166;54.228;37.632;2022-12-07T08:12:38;100542.16;;;-5.36;nan
72975;BME280;61166;54.228;37.632;2022-12-07T08:15:05;100554.16;;;-5.36;nan
72975;BME280;61166;54.228;37.632;2022-12-07T08:17:32;100545.22;;;-5.96;nan
72975;BME280;61166;54.228;37.632;2022-12-07T08:19:59;100547.84;;;-5.98;nan
72975;BME280;61166;54.228;37.632;2022-12-07T08:22:26;100533.28;;;-6.51;nan
72975;BME280;61166;54.228;37.632;2022-12-07T08:24:53;100537.78;;;-6.56;nan
72975;BME280;61166;54.228;37.632;2022-12-07T08:27:19;100534.97;;;-6.33;nan
72975;BME280;61166;54.228;37.632;2022-12-07T08:29:46;100511.50;;;-6.23;nan
72975;BME280;61166;54.228;37.632;2022-12-07T08:32:13;100520.78;;;-5.86;nan
72975;BME280;61166;54.228;37.632;2022-12-07T08:34:39;100530.56;;;-6.12;nan
72975;BME280;61166;54.228;37.632;2022-12-07T08:37:06;100517.97;;;-5.47;nan
72975;BME280;61166;54.228;37.632;2022-12-07T08:39:32;100526.56;;;-6.17;nan
72975;BME280;61166;54.228;37.632;2022-12-07T08:41:59;100520.19;;;-6.45;nan
72975;BME280;61166;54.228;37.632;2022-12-07T08:44:25;100524.31;;;-5.72;nan
72975;BME280;61166;54.228;37.632;2022-12-07T08:46:56;100506.97;;;-5.67;nan
72975;BME280;61166;54.228;37.632;2022-12-07T08:49:45;100500.31;;;-6.04;nan
72975;BME280;61166;54.228;37.632;2022-12-07T08:52:13;100492.47;;;-6.01;nan
72975;BME280;61166;54.228;37.632;2022-12-07T08:54:40;100493.25;;;-5.66;nan
72975;BME280;61166;54.228;37.632;2022-12-07T08:57:08;100507.44;;;-6.10;nan
72975;BME280;61166;54.228;37.632;2022-12-07T08:59:36;100504.44;;;-6.10;nan
72975;BME280;61166;54.228;37.632;2022-12-07T09:02:04;100511.38;;;-6.03;nan
72975;BME280;61166;54.228;37.632;2022-12-07T09:04:31;100488.38;;;-6.22;nan
72975;BME280;61166;54.228;37.632;2022-12-07T09:06:58;100489.53;;;-6.10;nan
72975;BME280;61166;54.228;37.632;2022-12-07T09:09:25;100476.34;;;-6.10;nan
72975;BME280;61166;54.228;37.632;2022-12-07T09:11:52;100484.47;;;-7.03;nan
72975;BME280;61166;54.228;37.632;2022-12-07T09:14:19;100499.41;;;-7.72;nan
72975;BME280;61166;54.228;37.632;2022-12-07T09:16:45;100488.28;;;-8.11;nan
72975;BME280;61166;54.228;37.632;2022-12-07T09:19:12;100494.03;;;-8.70;nan
72975;BME280;61166;54.228;37.632;2022-12-07T09:21:38;100487.44;;;-8.54;nan
72975;BME280;61166;54.228;37.632;2022-12-07T09:24:05;100486.94;;;-8.63;nan
72975;BME280;61166;54.228;37.632;2022-12-07T09:26:32;100485.63;;;-8.95;nan
72975;BME280;61166;54.228;37.632;2022-12-07T09:28:59;100488.84;;;-9.14;nan
72975;BME280;61166;54.228;37.632;2022-12-07T09:31:25;100486.00;;;-9.06;nan
72975;BME280;61166;54.228;37.632;2022-12-07T09:33:57;100507.56;;;-9.15;nan
72975;BME280;61166;54.228;37.632;2022-12-07T09:36:24;100479.41;;;-9.12;nan
72975;BME280;61166;54.228;37.632;2022-12-07T09:38:51;100488.16;;;-9.19;nan
72975;BME280;61166;54.228;37.632;2022-12-07T09:41:18;100477.41;;;-9.04;nan
72975;BME280;61166;54.228;37.632;2022-12-07T09:43:45;100477.09;;;-8.94;nan
72975;BME280;61166;54.228;37.632;2022-12-07T09:46:15;100470.22;;;-8.92;nan
72975;BME280;61166;54.228;37.632;2022-12-07T09:48:42;100460.97;;;-8.95;nan
72975;BME280;61166;54.228;37.632;2022-12-07T09:51:16;100473.50;;;-9.12;nan
72975;BME280;61166;54.228;37.632;2022-12-07T09:53:50;100457.66;;;-9.20;nan
72975;BME280;61166;54.228;37.632;2022-12-07T09:56:18;100466.34;;;-9.03;nan
72975;BME280;61166;54.228;37.632;2022-12-07T09:58:45;100452.88;;;-9.06;nan
72975;BME280;61166;54.228;37.632;2022-12-07T10:01:16;100453.38;;;-8.96;nan
72975;BME280;61166;54.228;37.632;2022-12-07T10:03:54;100454.81;;;-8.89;nan
72975;BME280;61166;54.228;37.632;2022-12-07T10:06:21;100436.06;;;-8.88;nan
72975;BME280;61166;54.228;37.632;2022-12-07T10:08:56;100461.56;;;-8.88;nan
72975;BME280;61166;54.228;37.632;2022-12-07T10:11:24;100440.06;;;-8.81;nan
72975;BME280;61166;54.228;37.632;2022-12-07T10:13:52;100437.84;;;-8.90;nan
72975;BME280;61166;54.228;37.632;2022-12-07T10:18:51;100426.16;;;-8.96;nan
72975;BME280;61166;54.228;37.632;2022-12-07T10:21:21;100419.22;;;-8.92;nan
72975;BME280;61166;54.228;37.632;2022-12-07T10:24:14;100415.84;;;-8.93;nan
72975;BME280;61166;54.228;37.632;2022-12-07T10:31:58;100412.47;;;-8.93;nan
72975;BME280;61166;54.228;37.632;2022-12-07T10:34:29;100419.00;;;-8.86;nan
72975;BME280;61166;54.228;37.632;2022-12-07T10:39:54;100437.47;;;-9.03;nan
72975;BME280;61166;54.228;37.632;2022-12-07T10:42:31;100390.66;;;-9.01;nan
72975;BME280;61166;54.228;37.632;2022-12-07T10:45:17;100393.75;;;-8.92;nan
72975;BME280;61166;54.228;37.632;2022-12-07T10:55:56;100383.50;;;-8.91;nan
72975;BME280;61166;54.228;37.632;2022-12-07T11:07:45;100373.72;;;-9.02;nan
72975;BME280;61166;54.228;37.632;2022-12-07T11:15:49;100365.88;;;-8.97;nan
72975;BME280;61166;54.228;37.632;2022-12-07T11:24:08;100380.94;;;-8.91;nan
72975;BME280;61166;54.228;37.632;2022-12-07T11:35:11;100347.28;;;-8.99;nan
72975;BME280;61166;54.228;37.632;2022-12-07T11:37:40;100365.59;;;-9.11;nan
72975;BME280;61166;54.228;37.632;2022-12-07T11:40:33;100371.38;;;-9.08;nan
72975;BME280;61166;54.228;37.632;2022-12-07T11:43:13;100345.91;;;-9.08;nan
72975;BME280;61166;54.228;37.632;2022-12-07T11:45:43;100358.88;;;-9.14;nan
72975;BME280;61166;54.228;37.632;2022-12-07T11:48:24;100363.03;;;-9.11;nan
72975;BME280;61166;54.228;37.632;2022-12-07T11:50:52;100382.75;;;-9.16;nan
72975;BME280;61166;54.228;37.632;2022-12-07T11:53:26;100347.22;;;-8.97;nan
72975;BME280;61166;54.228;37.632;2022-12-07T12:03:51;100354.50;;;-8.67;nan
72975;BME280;61166;54.228;37.632;2022-12-07T12:06:19;100341.41;;;-8.79;nan
72975;BME280;61166;54.228;37.632;2022-12-07T12:15:23;100361.50;;;-8.93;nan
72975;BME280;61166;54.228;37.632;2022-12-07T12:20:53;100338.38;;;-9.11;nan
72975;BME280;61166;54.228;37.632;2022-12-07T12:23:35;100341.09;;;-9.15;nan
72975;BME280;61166;54.228;37.632;2022-12-07T12:26:05;100343.31;;;-9.28;nan
72975;BME280;61166;54.228;37.632;2022-12-07T12:33:56;100339.72;;;-9.24;nan
72975;BME280;61166;54.228;37.632;2022-12-07T12:47:03;100334.13;;;-9.32;nan
72975;BME280;61166;54.228;37.632;2022-12-07T12:49:42;100324.41;;;-9.44;nan
72975;BME280;61166;54.228;37.632;2022-12-07T12:55:15;100320.38;;;-9.50;nan
72975;BME280;61166;54.228;37.632;2022-12-07T12:57:42;100366.91;;;-9.46;nan
72975;BME280;61166;54.228;37.632;2022-12-07T13:02:52;100320.09;;;-9.66;nan
72975;BME280;61166;54.228;37.632;2022-12-07T13:05:25;100343.22;;;-9.66;nan
72975;BME280;61166;54.228;37.632;2022-12-07T13:07:58;100352.41;;;-9.68;nan
72975;BME280;61166;54.228;37.632;2022-12-07T13:10:33;100337.34;;;-9.74;nan
72975;BME280;61166;54.228;37.632;2022-12-07T13:15:41;100329.06;;;-9.79;nan
72975;BME280;61166;54.228;37.632;2022-12-07T13:20:58;100319.44;;;-9.94;nan
72975;BME280;61166;54.228;37.632;2022-12-07T13:26:39;100317.69;;;-9.92;nan
72975;BME280;61166;54.228;37.632;2022-12-07T13:29:15;100313.22;;;-9.85;nan
72975;BME280;61166;54.228;37.632;2022-12-07T13:31:49;100330.41;;;-9.92;nan
72975;BME280;61166;54.228;37.632;2022-12-07T13:37:00;100332.28;;;-9.97;nan
72975;BME280;61166;54.228;37.632;2022-12-07T13:39:27;100315.19;;;-9.93;nan
72975;BME280;61166;54.228;37.632;2022-12-07T13:41:56;100307.81;;;-10.01;nan
72975;BME280;61166;54.228;37.632;2022-12-07T13:44:25;100321.53;;;-10.05;nan
72975;BME280;61166;54.228;37.632;2022-12-07T13:47:17;100330.34;;;-9.90;nan
72975;BME280;61166;54.228;37.632;2022-12-07T13:49:52;100312.69;;;-9.95;nan
72975;BME280;61166;54.228;37.632;2022-12-07T13:52:31;100306.28;;;-10.05;nan
72975;BME280;61166;54.228;37.632;2022-12-07T13:55:05;100312.19;;;-10.05;nan
72975;BME280;61166;54.228;37.632;2022-12-07T13:57:40;100314.56;;;-10.00;nan
72975;BME280;61166;54.228;37.632;2022-12-07T14:00:16;100309.81;;;-10.09;nan
72975;BME280;61166;54.228;37.632;2022-12-07T14:03:04;100314.84;;;-10.08;nan
72975;BME280;61166;54.228;37.632;2022-12-07T14:05:36;100304.50;;;-10.03;nan
72975;BME280;61166;54.228;37.632;2022-12-07T14:08:21;100307.16;;;-10.06;nan
72975;BME280;61166;54.228;37.632;2022-12-07T14:15:51;100305.66;;;-10.12;nan
72975;BME280;61166;54.228;37.632;2022-12-07T14:18:30;100297.50;;;-10.20;nan
72975;BME280;61166;54.228;37.632;2022-12-07T14:21:19;100299.69;;;-10.11;nan
72975;BME280;61166;54.228;37.632;2022-12-07T14:24:02;100316.66;;;-10.11;nan
72975;BME280;61166;54.228;37.632;2022-12-07T14:26:33;100330.06;;;-10.06;nan
72975;BME280;61166;54.228;37.632;2022-12-07T14:31:52;100299.53;;;-10.06;nan
72975;BME280;61166;54.228;37.632;2022-12-07T14:34:21;100297.09;;;-10.09;nan
72975;BME280;61166;54.228;37.632;2022-12-07T14:36:48;100302.19;;;-10.09;nan
72975;BME280;61166;54.228;37.632;2022-12-07T14:39:14;100297.75;;;-10.04;nan
72975;BME280;61166;54.228;37.632;2022-12-07T14:41:41;100290.34;;;-10.10;nan
72975;BME280;61166;54.228;37.632;2022-12-07T14:44:11;100286.03;;;-10.08;nan
72975;BME280;61166;54.228;37.632;2022-12-07T14:46:58;100300.34;;;-10.06;nan
72975;BME280;61166;54.228;37.632;2022-12-07T14:49:45;100294.44;;;-10.06;nan
72975;BME280;61166;54.228;37.632;2022-12-07T14:52:16;100284.59;;;-10.15;nan
72975;BME280;61166;54.228;37.632;2022-12-07T14:55:04;100287.81;;;-10.10;nan
72975;BME280;61166;54.228;37.632;2022-12-07T14:57:31;100292.09;;;-10.12;nan
72975;BME280;61166;54.228;37.632;2022-12-07T14:59:57;100272.75;;;-10.16;nan
72975;BME280;61166;54.228;37.632;2022-12-07T15:02:24;100275.91;;;-10.10;nan
72975;BME280;61166;54.228;37.632;2022-12-07T15:04:50;100286.13;;;-10.11;nan
72975;BME280;61166;54.228;37.632;2022-12-07T15:07:20;100287.63;;;-10.06;nan
72975;BME280;61166;54.228;37.632;2022-12-07T15:09:47;100279.28;;;-10.09;nan
72975;BME280;61166;54.228;37.632;2022-12-07T15:12:14;100255.41;;;-10.05;nan
72975;BME280;61166;54.228;37.632;2022-12-07T15:14:41;100279.19;;;-10.06;nan
72975;BME280;61166;54.228;37.632;2022-12-07T15:17:10;100287.81;;;-10.10;nan
72975;BME280;61166;54.228;37.632;2022-12-07T15:19:48;100265.00;;;-10.13;nan
72975;BME280;61166;54.228;37.632;2022-12-07T15:22:15;100255.72;;;-10.14;nan
72975;BME280;61166;54.228;37.632;2022-12-07T15:24:41;100262.34;;;-10.10;nan
72975;BME280;61166;54.228;37.632;2022-12-07T15:27:08;100246.38;;;-10.14;nan
72975;BME280;61166;54.228;37.632;2022-12-07T15:29:35;100261.75;;;-10.17;nan
72975;BME280;61166;54.228;37.632;2022-12-07T15:32:02;100259.03;;;-10.12;nan
72975;BME280;61166;54.228;37.632;2022-12-07T15:34:28;100254.94;;;-10.16;nan
72975;BME280;61166;54.228;37.632;2022-12-07T15:37:05;100244.50;;;-10.09;nan
72975;BME280;61166;54.228;37.632;2022-12-07T15:39:32;100261.47;;;-10.09;nan